sensor_id;sensor_type;location;lat;lon;timestamp;P1;durP1;ratioP1;P2;durP2;ratioP2
61336;SDS011;47212;41.326;2.104;2023-05-18T00:01:40;8.32;;;3.50;;
61336;SDS011;47212;41.326;2.104;2023-05-18T00:06:42;6.88;;;3.33;;
61336;SDS011;47212;41.326;2.104;2023-05-18T00:11:44;6.07;;;3.58;;
61336;SDS011;47212;41.326;2.104;2023-05-18T00:16:46;5.97;;;3.00;;
61336;SDS011;47212;41.326;2.104;2023-05-18T00:21:50;6.03;;;3.42;;
61336;SDS011;47212;41.326;2.104;2023-05-18T00:26:53;10.40;;;4.35;;
61336;SDS011;47212;41.326;2.104;2023-05-18T00:36:57;10.95;;;3.72;;
61336;SDS011;47212;41.326;2.104;2023-05-18T00:41:59;11.43;;;4.03;;
61336;SDS011;47212;41.326;2.104;2023-05-18T00:47:02;12.35;;;4.30;;
61336;SDS011;47212;41.326;2.104;2023-05-18T00:52:04;8.52;;;3.30;;
61336;SDS011;47212;41.326;2.104;2023-05-18T00:57:06;9.50;;;4.00;;
61336;SDS011;47212;41.326;2.104;2023-05-18T01:05:11;6.13;;;3.40;;
61336;SDS011;47212;41.326;2.104;2023-05-18T01:10:14;9.40;;;3.47;;
61336;SDS011;47212;41.326;2.104;2023-05-18T01:15:19;10.60;;;3.58;;
61336;SDS011;47212;41.326;2.104;2023-05-18T01:20:28;6.82;;;3.63;;
61336;SDS011;47212;41.326;2.104;2023-05-18T01:26:40;7.28;;;3.50;;
61336;SDS011;47212;41.326;2.104;2023-05-18T01:31:16;10.40;;;3.83;;
61336;SDS011;47212;41.326;2.104;2023-05-18T01:36:19;8.88;;;4.20;;
61336;SDS011;47212;41.326;2.104;2023-05-18T01:41:21;8.68;;;4.35;;
61336;SDS011;47212;41.326;2.104;2023-05-18T01:51:55;11.60;;;4.22;;
61336;SDS011;47212;41.326;2.104;2023-05-18T01:57:03;8.73;;;4.68;;
61336;SDS011;47212;41.326;2.104;2023-05-18T02:02:11;6.93;;;3.80;;
61336;SDS011;47212;41.326;2.104;2023-05-18T02:07:13;6.95;;;3.40;;
61336;SDS011;47212;41.326;2.104;2023-05-18T02:12:16;14.27;;;5.78;;
61336;SDS011;47212;41.326;2.104;2023-05-18T02:17:18;10.52;;;5.28;;
61336;SDS011;47212;41.326;2.104;2023-05-18T02:22:24;9.82;;;5.05;;
61336;SDS011;47212;41.326;2.104;2023-05-18T02:27:26;13.90;;;5.53;;
61336;SDS011;47212;41.326;2.104;2023-05-18T02:32:30;8.95;;;5.05;;
61336;SDS011;47212;41.326;2.104;2023-05-18T02:37:40;10.25;;;5.25;;
61336;SDS011;47212;41.326;2.104;2023-05-18T02:42:44;10.80;;;5.35;;
61336;SDS011;47212;41.326;2.104;2023-05-18T02:47:47;19.23;;;6.95;;
61336;SDS011;47212;41.326;2.104;2023-05-18T02:52:49;12.60;;;6.30;;
61336;SDS011;47212;41.326;2.104;2023-05-18T02:57:52;15.10;;;6.15;;
61336;SDS011;47212;41.326;2.104;2023-05-18T03:03:11;16.23;;;5.80;;
61336;SDS011;47212;41.326;2.104;2023-05-18T03:08:19;9.77;;;5.05;;
61336;SDS011;47212;41.326;2.104;2023-05-18T03:13:22;9.52;;;5.30;;
61336;SDS011;47212;41.326;2.104;2023-05-18T03:18:24;11.02;;;5.47;;
61336;SDS011;47212;41.326;2.104;2023-05-18T03:23:27;12.90;;;5.70;;
61336;SDS011;47212;41.326;2.104;2023-05-18T03:28:31;10.90;;;5.38;;
61336;SDS011;47212;41.326;2.104;2023-05-18T03:33:33;9.50;;;5.28;;
61336;SDS011;47212;41.326;2.104;2023-05-18T03:38:35;11.82;;;5.20;;
61336;SDS011;47212;41.326;2.104;2023-05-18T03:43:42;10.38;;;5.00;;
61336;SDS011;47212;41.326;2.104;2023-05-18T03:48:45;10.35;;;4.95;;
61336;SDS011;47212;41.326;2.104;2023-05-18T03:53:52;12.18;;;5.63;;
61336;SDS011;47212;41.326;2.104;2023-05-18T03:58:54;12.55;;;5.30;;
61336;SDS011;47212;41.326;2.104;2023-05-18T04:15:59;13.55;;;5.40;;
61336;SDS011;47212;41.326;2.104;2023-05-18T04:21:03;10.27;;;5.13;;
61336;SDS011;47212;41.326;2.104;2023-05-18T04:26:45;9.95;;;5.32;;
61336;SDS011;47212;41.326;2.104;2023-05-18T04:32:31;8.60;;;4.90;;
61336;SDS011;47212;41.326;2.104;2023-05-18T04:38:18;13.18;;;5.70;;
61336;SDS011;47212;41.326;2.104;2023-05-18T04:43:24;13.95;;;5.78;;
61336;SDS011;47212;41.326;2.104;2023-05-18T04:48:29;10.48;;;5.78;;
61336;SDS011;47212;41.326;2.104;2023-05-18T04:53:35;12.73;;;6.00;;
61336;SDS011;47212;41.326;2.104;2023-05-18T04:58:39;9.60;;;5.32;;
61336;SDS011;47212;41.326;2.104;2023-05-18T05:03:42;8.65;;;5.40;;
61336;SDS011;47212;41.326;2.104;2023-05-18T05:08:45;11.38;;;5.15;;
61336;SDS011;47212;41.326;2.104;2023-05-18T05:13:49;13.82;;;5.80;;
61336;SDS011;47212;41.326;2.104;2023-05-18T05:18:51;15.45;;;5.15;;
61336;SDS011;47212;41.326;2.104;2023-05-18T05:23:54;14.18;;;5.70;;
61336;SDS011;47212;41.326;2.104;2023-05-18T05:28:58;12.75;;;5.72;;
61336;SDS011;47212;41.326;2.104;2023-05-18T05:34:01;12.90;;;5.55;;
61336;SDS011;47212;41.326;2.104;2023-05-18T05:39:03;9.77;;;4.97;;
61336;SDS011;47212;41.326;2.104;2023-05-18T05:44:06;9.55;;;4.35;;
61336;SDS011;47212;41.326;2.104;2023-05-18T05:49:08;12.55;;;4.82;;
61336;SDS011;47212;41.326;2.104;2023-05-18T05:54:10;11.60;;;4.93;;
61336;SDS011;47212;41.326;2.104;2023-05-18T05:59:13;15.55;;;4.90;;
61336;SDS011;47212;41.326;2.104;2023-05-18T06:04:15;9.20;;;4.05;;
61336;SDS011;47212;41.326;2.104;2023-05-18T06:09:17;11.45;;;4.30;;
61336;SDS011;47212;41.326;2.104;2023-05-18T06:14:20;12.35;;;5.03;;
61336;SDS011;47212;41.326;2.104;2023-05-18T06:19:23;10.40;;;4.35;;
61336;SDS011;47212;41.326;2.104;2023-05-18T06:24:26;11.20;;;4.65;;
61336;SDS011;47212;41.326;2.104;2023-05-18T06:29:58;11.25;;;4.75;;
61336;SDS011;47212;41.326;2.104;2023-05-18T06:40:13;7.85;;;3.38;;
61336;SDS011;47212;41.326;2.104;2023-05-18T06:45:16;6.68;;;3.15;;
61336;SDS011;47212;41.326;2.104;2023-05-18T06:50:26;6.65;;;2.95;;
61336;SDS011;47212;41.326;2.104;2023-05-18T06:55:28;9.10;;;3.70;;
61336;SDS011;47212;41.326;2.104;2023-05-18T07:00:32;7.75;;;3.83;;
61336;SDS011;47212;41.326;2.104;2023-05-18T07:05:36;10.55;;;5.30;;
61336;SDS011;47212;41.326;2.104;2023-05-18T07:10:40;11.95;;;5.15;;
61336;SDS011;47212;41.326;2.104;2023-05-18T07:15:43;7.32;;;4.15;;
61336;SDS011;47212;41.326;2.104;2023-05-18T07:20:45;8.27;;;3.85;;
61336;SDS011;47212;41.326;2.104;2023-05-18T07:25:47;7.60;;;3.42;;
61336;SDS011;47212;41.326;2.104;2023-05-18T07:30:49;8.77;;;3.70;;
61336;SDS011;47212;41.326;2.104;2023-05-18T07:35:52;6.78;;;3.50;;
61336;SDS011;47212;41.326;2.104;2023-05-18T07:40:54;6.60;;;3.20;;
61336;SDS011;47212;41.326;2.104;2023-05-18T07:45:56;9.45;;;3.97;;
61336;SDS011;47212;41.326;2.104;2023-05-18T07:51:01;6.43;;;3.20;;
61336;SDS011;47212;41.326;2.104;2023-05-18T07:56:04;12.25;;;3.58;;
61336;SDS011;47212;41.326;2.104;2023-05-18T08:01:07;5.72;;;2.88;;
61336;SDS011;47212;41.326;2.104;2023-05-18T08:06:10;4.38;;;2.55;;
61336;SDS011;47212;41.326;2.104;2023-05-18T08:11:12;6.07;;;3.00;;
61336;SDS011;47212;41.326;2.104;2023-05-18T08:22:00;7.93;;;4.97;;
61336;SDS011;47212;41.326;2.104;2023-05-18T08:27:03;6.57;;;2.95;;
61336;SDS011;47212;41.326;2.104;2023-05-18T08:32:10;6.07;;;3.30;;
61336;SDS011;47212;41.326;2.104;2023-05-18T08:37:13;7.65;;;3.17;;
61336;SDS011;47212;41.326;2.104;2023-05-18T08:42:18;5.30;;;2.80;;
61336;SDS011;47212;41.326;2.104;2023-05-18T08:47:28;4.75;;;2.63;;
61336;SDS011;47212;41.326;2.104;2023-05-18T08:52:37;5.55;;;2.72;;
61336;SDS011;47212;41.326;2.104;2023-05-18T08:57:49;7.43;;;2.80;;
61336;SDS011;47212;41.326;2.104;2023-05-18T09:02:58;5.78;;;2.75;;
61336;SDS011;47212;41.326;2.104;2023-05-18T09:08:01;6.38;;;3.13;;
61336;SDS011;47212;41.326;2.104;2023-05-18T09:13:04;4.43;;;2.67;;
61336;SDS011;47212;41.326;2.104;2023-05-18T09:18:08;3.90;;;2.53;;
61336;SDS011;47212;41.326;2.104;2023-05-18T09:23:13;6.05;;;2.95;;
61336;SDS011;47212;41.326;2.104;2023-05-18T09:33:39;6.87;;;3.30;;
61336;SDS011;47212;41.326;2.104;2023-05-18T09:38:42;6.63;;;2.67;;
61336;SDS011;47212;41.326;2.104;2023-05-18T09:43:47;6.30;;;3.28;;
61336;SDS011;47212;41.326;2.104;2023-05-18T09:48:51;5.90;;;2.63;;
61336;SDS011;47212;41.326;2.104;2023-05-18T09:53:55;10.38;;;3.17;;
61336;SDS011;47212;41.326;2.104;2023-05-18T09:59:06;6.20;;;3.10;;
61336;SDS011;47212;41.326;2.104;2023-05-18T10:04:09;6.90;;;3.55;;
61336;SDS011;47212;41.326;2.104;2023-05-18T10:09:14;4.43;;;2.80;;
61336;SDS011;47212;41.326;2.104;2023-05-18T10:14:17;6.32;;;2.83;;
61336;SDS011;47212;41.326;2.104;2023-05-18T10:19:25;4.80;;;3.03;;
61336;SDS011;47212;41.326;2.104;2023-05-18T10:24:30;7.10;;;2.58;;
61336;SDS011;47212;41.326;2.104;2023-05-18T10:29:36;4.90;;;2.63;;
61336;SDS011;47212;41.326;2.104;2023-05-18T10:34:38;9.93;;;3.10;;
61336;SDS011;47212;41.326;2.104;2023-05-18T10:39:42;6.03;;;2.78;;
61336;SDS011;47212;41.326;2.104;2023-05-18T10:44:46;5.18;;;2.67;;
61336;SDS011;47212;41.326;2.104;2023-05-18T10:49:49;6.68;;;2.70;;
61336;SDS011;47212;41.326;2.104;2023-05-18T10:54:54;5.88;;;2.70;;
61336;SDS011;47212;41.326;2.104;2023-05-18T10:59:57;10.05;;;2.88;;
61336;SDS011;47212;41.326;2.104;2023-05-18T11:05:00;6.13;;;3.35;;
61336;SDS011;47212;41.326;2.104;2023-05-18T11:10:07;4.10;;;2.67;;
61336;SDS011;47212;41.326;2.104;2023-05-18T11:15:11;9.13;;;3.65;;
61336;SDS011;47212;41.326;2.104;2023-05-18T11:20:13;5.00;;;2.67;;
61336;SDS011;47212;41.326;2.104;2023-05-18T11:41:29;8.48;;;3.35;;
61336;SDS011;47212;41.326;2.104;2023-05-18T11:52:05;6.32;;;2.97;;
61336;SDS011;47212;41.326;2.104;2023-05-18T11:57:25;5.47;;;2.83;;
61336;SDS011;47212;41.326;2.104;2023-05-18T12:02:33;9.23;;;3.28;;
61336;SDS011;47212;41.326;2.104;2023-05-18T12:07:35;14.40;;;3.65;;
61336;SDS011;47212;41.326;2.104;2023-05-18T12:12:39;40.03;;;5.40;;
61336;SDS011;47212;41.326;2.104;2023-05-18T12:17:48;5.82;;;2.78;;
61336;SDS011;47212;41.326;2.104;2023-05-18T12:22:52;6.13;;;3.00;;
61336;SDS011;47212;41.326;2.104;2023-05-18T12:27:56;8.15;;;3.38;;
61336;SDS011;47212;41.326;2.104;2023-05-18T12:32:59;6.35;;;3.70;;
61336;SDS011;47212;41.326;2.104;2023-05-18T12:38:05;7.53;;;3.50;;
61336;SDS011;47212;41.326;2.104;2023-05-18T12:43:08;7.20;;;3.17;;
61336;SDS011;47212;41.326;2.104;2023-05-18T12:48:10;6.30;;;3.17;;
61336;SDS011;47212;41.326;2.104;2023-05-18T12:53:15;8.07;;;3.08;;
61336;SDS011;47212;41.326;2.104;2023-05-18T12:58:23;17.00;;;3.33;;
61336;SDS011;47212;41.326;2.104;2023-05-18T13:03:25;11.40;;;3.38;;
61336;SDS011;47212;41.326;2.104;2023-05-18T13:08:34;7.05;;;3.30;;
61336;SDS011;47212;41.326;2.104;2023-05-18T13:13:37;6.38;;;3.50;;
61336;SDS011;47212;41.326;2.104;2023-05-18T13:18:44;7.28;;;3.30;;
61336;SDS011;47212;41.326;2.104;2023-05-18T13:23:47;8.63;;;3.33;;
61336;SDS011;47212;41.326;2.104;2023-05-18T13:28:50;5.80;;;3.28;;
61336;SDS011;47212;41.326;2.104;2023-05-18T13:33:54;6.72;;;3.28;;
61336;SDS011;47212;41.326;2.104;2023-05-18T13:38:56;10.18;;;4.57;;
61336;SDS011;47212;41.326;2.104;2023-05-18T13:43:58;9.60;;;3.58;;
61336;SDS011;47212;41.326;2.104;2023-05-18T13:49:00;7.35;;;3.92;;
61336;SDS011;47212;41.326;2.104;2023-05-18T13:54:03;8.75;;;3.42;;
61336;SDS011;47212;41.326;2.104;2023-05-18T13:59:05;6.85;;;3.38;;
61336;SDS011;47212;41.326;2.104;2023-05-18T14:04:07;6.03;;;3.38;;
61336;SDS011;47212;41.326;2.104;2023-05-18T14:09:09;7.18;;;3.35;;
61336;SDS011;47212;41.326;2.104;2023-05-18T14:14:11;9.93;;;3.38;;
61336;SDS011;47212;41.326;2.104;2023-05-18T14:19:13;8.25;;;3.17;;
61336;SDS011;47212;41.326;2.104;2023-05-18T14:24:16;6.90;;;2.92;;
61336;SDS011;47212;41.326;2.104;2023-05-18T14:29:19;8.23;;;3.47;;
61336;SDS011;47212;41.326;2.104;2023-05-18T14:34:22;7.13;;;3.30;;
61336;SDS011;47212;41.326;2.104;2023-05-18T14:39:24;8.38;;;3.22;;
61336;SDS011;47212;41.326;2.104;2023-05-18T14:44:26;6.70;;;3.08;;
61336;SDS011;47212;41.326;2.104;2023-05-18T14:49:28;9.85;;;3.33;;
61336;SDS011;47212;41.326;2.104;2023-05-18T14:54:30;6.45;;;3.25;;
61336;SDS011;47212;41.326;2.104;2023-05-18T14:59:32;8.23;;;3.60;;
61336;SDS011;47212;41.326;2.104;2023-05-18T15:04:34;7.97;;;3.30;;
61336;SDS011;47212;41.326;2.104;2023-05-18T15:09:37;8.20;;;3.20;;
61336;SDS011;47212;41.326;2.104;2023-05-18T15:14:49;6.47;;;3.30;;
61336;SDS011;47212;41.326;2.104;2023-05-18T15:19:55;7.40;;;2.70;;
61336;SDS011;47212;41.326;2.104;2023-05-18T15:24:57;6.28;;;2.75;;
61336;SDS011;47212;41.326;2.104;2023-05-18T15:30:03;9.23;;;3.60;;
61336;SDS011;47212;41.326;2.104;2023-05-18T15:35:11;9.50;;;5.30;;
61336;SDS011;47212;41.326;2.104;2023-05-18T15:40:21;12.63;;;3.70;;
61336;SDS011;47212;41.326;2.104;2023-05-18T15:45:23;11.77;;;3.70;;
61336;SDS011;47212;41.326;2.104;2023-05-18T15:50:25;11.55;;;3.85;;
61336;SDS011;47212;41.326;2.104;2023-05-18T15:55:27;8.10;;;3.55;;
61336;SDS011;47212;41.326;2.104;2023-05-18T16:00:29;8.07;;;3.00;;
61336;SDS011;47212;41.326;2.104;2023-05-18T16:05:33;12.27;;;3.65;;
61336;SDS011;47212;41.326;2.104;2023-05-18T16:10:35;9.05;;;3.50;;
61336;SDS011;47212;41.326;2.104;2023-05-18T16:15:37;6.40;;;3.30;;
61336;SDS011;47212;41.326;2.104;2023-05-18T16:20:39;7.88;;;2.97;;
61336;SDS011;47212;41.326;2.104;2023-05-18T16:25:41;9.05;;;3.50;;
61336;SDS011;47212;41.326;2.104;2023-05-18T16:30:43;8.02;;;3.22;;
61336;SDS011;47212;41.326;2.104;2023-05-18T16:35:46;7.75;;;3.17;;
61336;SDS011;47212;41.326;2.104;2023-05-18T16:40:48;7.47;;;3.15;;
61336;SDS011;47212;41.326;2.104;2023-05-18T16:45:53;13.98;;;10.68;;
61336;SDS011;47212;41.326;2.104;2023-05-18T16:50:55;7.43;;;4.32;;
61336;SDS011;47212;41.326;2.104;2023-05-18T16:55:57;7.47;;;3.38;;
61336;SDS011;47212;41.326;2.104;2023-05-18T17:00:59;5.80;;;2.80;;
61336;SDS011;47212;41.326;2.104;2023-05-18T17:06:02;6.75;;;2.72;;
61336;SDS011;47212;41.326;2.104;2023-05-18T17:11:04;9.43;;;3.33;;
61336;SDS011;47212;41.326;2.104;2023-05-18T17:16:07;9.75;;;3.22;;
61336;SDS011;47212;41.326;2.104;2023-05-18T17:21:09;6.35;;;2.70;;
61336;SDS011;47212;41.326;2.104;2023-05-18T17:26:11;4.78;;;2.97;;
61336;SDS011;47212;41.326;2.104;2023-05-18T17:31:13;4.03;;;2.60;;
61336;SDS011;47212;41.326;2.104;2023-05-18T17:36:15;5.22;;;2.55;;
61336;SDS011;47212;41.326;2.104;2023-05-18T17:41:19;5.85;;;2.67;;
61336;SDS011;47212;41.326;2.104;2023-05-18T17:46:23;7.18;;;2.80;;
61336;SDS011;47212;41.326;2.104;2023-05-18T17:51:25;6.35;;;3.08;;
61336;SDS011;47212;41.326;2.104;2023-05-18T17:56:27;6.32;;;2.95;;
61336;SDS011;47212;41.326;2.104;2023-05-18T18:01:31;5.07;;;2.92;;
61336;SDS011;47212;41.326;2.104;2023-05-18T18:06:34;6.50;;;2.97;;
61336;SDS011;47212;41.326;2.104;2023-05-18T18:11:36;6.18;;;2.92;;
61336;SDS011;47212;41.326;2.104;2023-05-18T18:16:39;3.63;;;2.63;;
61336;SDS011;47212;41.326;2.104;2023-05-18T18:21:45;6.75;;;3.33;;
61336;SDS011;47212;41.326;2.104;2023-05-18T18:26:47;5.47;;;2.95;;
61336;SDS011;47212;41.326;2.104;2023-05-18T18:31:53;6.68;;;3.03;;
61336;SDS011;47212;41.326;2.104;2023-05-18T18:36:58;7.65;;;3.25;;
61336;SDS011;47212;41.326;2.104;2023-05-18T18:42:00;5.93;;;3.13;;
61336;SDS011;47212;41.326;2.104;2023-05-18T18:47:02;7.07;;;2.90;;
61336;SDS011;47212;41.326;2.104;2023-05-18T18:52:05;4.15;;;2.70;;
61336;SDS011;47212;41.326;2.104;2023-05-18T18:57:07;5.38;;;2.60;;
61336;SDS011;47212;41.326;2.104;2023-05-18T19:02:11;5.05;;;2.72;;
61336;SDS011;47212;41.326;2.104;2023-05-18T19:07:16;9.45;;;4.50;;
61336;SDS011;47212;41.326;2.104;2023-05-18T19:12:18;6.63;;;3.17;;
61336;SDS011;47212;41.326;2.104;2023-05-18T19:17:27;4.97;;;3.17;;
61336;SDS011;47212;41.326;2.104;2023-05-18T19:22:38;13.50;;;3.58;;
61336;SDS011;47212;41.326;2.104;2023-05-18T19:27:40;6.65;;;3.08;;
61336;SDS011;47212;41.326;2.104;2023-05-18T19:32:43;4.72;;;2.67;;
61336;SDS011;47212;41.326;2.104;2023-05-18T19:37:45;4.72;;;2.80;;
61336;SDS011;47212;41.326;2.104;2023-05-18T19:42:48;7.97;;;3.38;;
61336;SDS011;47212;41.326;2.104;2023-05-18T19:47:54;8.43;;;2.83;;
61336;SDS011;47212;41.326;2.104;2023-05-18T19:52:58;7.20;;;4.00;;
61336;SDS011;47212;41.326;2.104;2023-05-18T19:58:00;8.80;;;3.28;;
61336;SDS011;47212;41.326;2.104;2023-05-18T20:03:02;8.02;;;2.90;;
61336;SDS011;47212;41.326;2.104;2023-05-18T20:08:04;5.13;;;2.60;;
61336;SDS011;47212;41.326;2.104;2023-05-18T20:13:09;6.43;;;3.25;;
61336;SDS011;47212;41.326;2.104;2023-05-18T20:18:12;5.20;;;3.00;;
61336;SDS011;47212;41.326;2.104;2023-05-18T20:23:14;7.63;;;3.63;;
61336;SDS011;47212;41.326;2.104;2023-05-18T20:28:16;6.78;;;3.60;;
61336;SDS011;47212;41.326;2.104;2023-05-18T20:33:21;10.45;;;6.40;;
61336;SDS011;47212;41.326;2.104;2023-05-18T20:38:24;7.90;;;3.30;;
61336;SDS011;47212;41.326;2.104;2023-05-18T20:43:27;5.80;;;3.30;;
61336;SDS011;47212;41.326;2.104;2023-05-18T20:48:29;7.60;;;2.38;;
61336;SDS011;47212;41.326;2.104;2023-05-18T20:53:32;5.85;;;2.92;;
61336;SDS011;47212;41.326;2.104;2023-05-18T20:58:34;5.18;;;2.78;;
61336;SDS011;47212;41.326;2.104;2023-05-18T21:03:36;5.32;;;2.63;;
61336;SDS011;47212;41.326;2.104;2023-05-18T21:08:41;8.20;;;3.67;;
61336;SDS011;47212;41.326;2.104;2023-05-18T21:13:49;5.90;;;2.72;;
61336;SDS011;47212;41.326;2.104;2023-05-18T21:18:51;7.28;;;2.90;;
61336;SDS011;47212;41.326;2.104;2023-05-18T21:23:53;6.68;;;3.40;;
61336;SDS011;47212;41.326;2.104;2023-05-18T21:28:56;6.40;;;2.60;;
61336;SDS011;47212;41.326;2.104;2023-05-18T21:33:58;5.25;;;2.45;;
61336;SDS011;47212;41.326;2.104;2023-05-18T21:39:01;5.78;;;2.72;;
61336;SDS011;47212;41.326;2.104;2023-05-18T21:44:05;7.80;;;2.92;;
61336;SDS011;47212;41.326;2.104;2023-05-18T21:49:07;5.32;;;2.80;;
61336;SDS011;47212;41.326;2.104;2023-05-18T21:54:10;5.45;;;2.70;;
61336;SDS011;47212;41.326;2.104;2023-05-18T21:59:12;4.93;;;2.53;;
61336;SDS011;47212;41.326;2.104;2023-05-18T22:04:14;5.63;;;2.92;;
61336;SDS011;47212;41.326;2.104;2023-05-18T22:09:19;8.93;;;3.22;;
61336;SDS011;47212;41.326;2.104;2023-05-18T22:14:21;8.15;;;3.40;;
61336;SDS011;47212;41.326;2.104;2023-05-18T22:19:23;4.72;;;2.60;;
61336;SDS011;47212;41.326;2.104;2023-05-18T22:24:26;3.58;;;2.30;;
61336;SDS011;47212;41.326;2.104;2023-05-18T22:29:28;4.53;;;2.55;;
61336;SDS011;47212;41.326;2.104;2023-05-18T22:34:31;10.55;;;4.47;;
61336;SDS011;47212;41.326;2.104;2023-05-18T22:39:33;7.38;;;3.85;;
61336;SDS011;47212;41.326;2.104;2023-05-18T22:44:35;6.63;;;2.95;;
61336;SDS011;47212;41.326;2.104;2023-05-18T22:49:37;4.63;;;2.40;;
61336;SDS011;47212;41.326;2.104;2023-05-18T22:54:40;3.47;;;2.25;;
61336;SDS011;47212;41.326;2.104;2023-05-18T22:59:43;6.57;;;3.20;;
61336;SDS011;47212;41.326;2.104;2023-05-18T23:04:45;7.70;;;2.90;;
61336;SDS011;47212;41.326;2.104;2023-05-18T23:09:47;5.72;;;3.00;;
61336;SDS011;47212;41.326;2.104;2023-05-18T23:14:49;4.18;;;2.63;;
61336;SDS011;47212;41.326;2.104;2023-05-18T23:19:56;7.75;;;3.10;;
61336;SDS011;47212;41.326;2.104;2023-05-18T23:24:59;5.78;;;2.90;;
61336;SDS011;47212;41.326;2.104;2023-05-18T23:30:03;6.45;;;2.65;;
61336;SDS011;47212;41.326;2.104;2023-05-18T23:35:06;4.88;;;2.88;;
61336;SDS011;47212;41.326;2.104;2023-05-18T23:40:09;7.05;;;3.30;;
61336;SDS011;47212;41.326;2.104;2023-05-18T23:45:15;6.63;;;3.00;;
61336;SDS011;47212;41.326;2.104;2023-05-18T23:50:17;6.20;;;2.90;;
61336;SDS011;47212;41.326;2.104;2023-05-18T23:55:21;5.85;;;3.03;;
